Time;durP1;ratioP1;P1;durP2;ratioP2;P2;SDS_P1;SDS_P2;PMS_P1;PMS_P2;Temp;Humidity;BMP_temperature;BMP_pressure;BME280_temperature;BME280_humidity;BME280_pressure;Samples;Min_cycle;Max_cycle;Signal;HPM_P1;HPM_P2
2023/11/24 00:38:34;;;;;;;7.85;6.38;;;;;;;;;;6161804;23;20028;-80
2023/11/24 00:41:14;;;;;;;;;;;;;;;;;;;;;
2023/11/24 00:43:45;;;;;;;10.48;6.18;;;;;;;;;;6139105;23;20156;-80
2023/11/24 01:54:55;;;;;;;9.48;6.85;;;;;;;;;;6191952;23;20063;-82
2023/11/24 03:18:57;;;;;;;4.72;2.95;;;;;;;;;;5960147;23;20028;-81
2023/11/24 03:28:07;;;;;;;3.38;3.05;;;;;;;;;;5936019;24;19935;-81
2023/11/24 04:29:03;;;;;;;4.40;1.80;;;;;;;;;;6199166;23;20021;-80
2023/11/24 04:31:30;;;;;;;3.60;2.10;;;;;;;;;;6166703;23;20017;-80
2023/11/24 04:33:57;;;;;;;9.00;2.70;;;;;;;;;;6141154;23;20473;-80
2023/11/24 04:36:25;;;;;;;5.65;2.85;;;;;;;;;;6190901;23;20479;-80
2023/11/24 04:38:52;;;;;;;3.83;2.85;;;;;;;;;;6166047;23;20025;-80
2023/11/24 04:41:19;;;;;;;6.05;3.15;;;;;;;;;;6166243;23;20469;-80
2023/11/24 04:43:47;;;;;;;6.65;2.30;;;;;;;;;;6141883;23;20021;-80
2023/11/24 04:46:15;;;;;;;7.75;2.90;;;;;;;;;;6140418;23;20017;-80
2023/11/24 04:48:43;;;;;;;5.97;2.13;;;;;;;;;;6140267;23;20396;-80
2023/11/24 04:51:10;;;;;;;3.53;1.73;;;;;;;;;;6140405;23;20017;-80
2023/11/24 04:53:37;;;;;;;8.32;2.53;;;;;;;;;;6164537;23;20017;-80
2023/11/24 04:56:05;;;;;;;5.60;2.30;;;;;;;;;;6166253;23;20013;-80
2023/11/24 04:58:33;;;;;;;4.63;2.25;;;;;;;;;;6201520;23;20024;-80
2023/11/24 05:01:00;;;;;;;7.20;3.90;;;;;;;;;;6165643;23;20017;-80
2023/11/24 05:03:29;;;;;;;4.60;2.25;;;;;;;;;;6166531;23;20024;-80
2023/11/24 05:05:56;;;;;;;7.05;2.92;;;;;;;;;;6142903;23;20013;-80
2023/11/24 05:08:23;;;;;;;4.13;2.15;;;;;;;;;;6140243;23;20024;-80
2023/11/24 05:10:51;;;;;;;3.38;2.95;;;;;;;;;;6191539;23;20013;-80
2023/11/24 05:13:18;;;;;;;11.27;3.20;;;;;;;;;;6141410;23;20028;-80
2023/11/24 05:15:46;;;;;;;4.97;2.08;;;;;;;;;;6166204;23;20021;-80
2023/11/24 05:18:13;;;;;;;5.22;2.75;;;;;;;;;;6164958;23;20028;-80
2023/11/24 05:20:42;;;;;;;4.88;2.65;;;;;;;;;;6141508;23;20017;-80
2023/11/24 05:23:09;;;;;;;8.43;3.25;;;;;;;;;;6165052;23;20043;-80
2023/11/24 05:25:37;;;;;;;5.85;2.63;;;;;;;;;;6141195;23;20021;-80
2023/11/24 05:28:04;;;;;;;9.82;3.40;;;;;;;;;;6195771;23;20021;-80
2023/11/24 05:30:32;;;;;;;9.23;3.00;;;;;;;;;;6179721;23;20021;-80
2023/11/24 05:33:00;;;;;;;12.05;5.18;;;;;;;;;;6180704;23;20013;-80
2023/11/24 05:35:29;;;;;;;7.68;3.08;;;;;;;;;;6156633;23;20027;-80
2023/11/24 05:37:58;;;;;;;11.88;3.83;;;;;;;;;;6190056;23;20168;-80
2023/11/24 05:40:25;;;;;;;12.85;3.95;;;;;;;;;;6180818;23;20017;-80
2023/11/24 05:42:52;;;;;;;5.30;2.30;;;;;;;;;;6216118;23;20013;-80
2023/11/24 05:45:22;;;;;;;4.13;2.50;;;;;;;;;;6181191;23;20021;-80
2023/11/24 05:47:49;;;;;;;4.65;2.95;;;;;;;;;;6179612;23;20020;-80
2023/11/24 05:50:22;;;;;;;6.88;4.63;;;;;;;;;;6179955;23;20017;-80
2023/11/24 05:52:49;;;;;;;7.82;2.50;;;;;;;;;;6155878;23;20017;-80
2023/11/24 05:55:18;;;;;;;12.75;3.33;;;;;;;;;;6206611;23;20019;-81
2023/11/24 05:57:46;;;;;;;4.30;2.22;;;;;;;;;;6153915;23;20473;-80
2023/11/24 06:00:17;;;;;;;3.33;2.00;;;;;;;;;;6179502;23;20021;-80
2023/11/24 06:02:44;;;;;;;4.72;2.83;;;;;;;;;;6215201;23;20068;-80
2023/11/24 06:05:15;;;;;;;6.35;2.67;;;;;;;;;;6180028;23;20021;-80
2023/11/24 06:07:42;;;;;;;6.32;2.58;;;;;;;;;;6205431;23;20023;-80
2023/11/24 06:10:10;;;;;;;4.88;2.30;;;;;;;;;;6179256;23;20020;-79
2023/11/24 06:12:40;;;;;;;6.25;4.05;;;;;;;;;;6176439;23;20021;-80
2023/11/24 06:15:09;;;;;;;6.97;2.47;;;;;;;;;;6178399;23;20020;-80
2023/11/24 06:17:36;;;;;;;7.57;2.58;;;;;;;;;;6153222;23;20261;-80
2023/11/24 06:20:05;;;;;;;7.00;4.97;;;;;;;;;;6155261;23;20021;-80
2023/11/24 06:22:32;;;;;;;4.65;2.85;;;;;;;;;;6155279;23;20027;-80
2023/11/24 06:24:59;;;;;;;4.63;3.75;;;;;;;;;;6179989;23;20021;-80
2023/11/24 06:27:26;;;;;;;5.32;2.25;;;;;;;;;;6179494;23;20021;-80
2023/11/24 06:29:55;;;;;;;7.78;2.90;;;;;;;;;;6130539;23;20039;-80
2023/11/24 06:32:22;;;;;;;6.10;3.00;;;;;;;;;;6203547;23;20032;-80
2023/11/24 06:34:49;;;;;;;3.75;2.90;;;;;;;;;;6179869;23;20027;-81
2023/11/24 06:37:17;;;;;;;5.78;2.70;;;;;;;;;;6155087;23;20028;-81
2023/11/24 06:39:45;;;;;;;8.13;3.13;;;;;;;;;;6154923;23;20047;-80
2023/11/24 06:42:12;;;;;;;6.35;2.97;;;;;;;;;;6155343;23;20021;-80
2023/11/24 06:44:40;;;;;;;5.97;3.05;;;;;;;;;;6153398;23;20020;-80
2023/11/24 07:30:53;;;;;;;4.00;2.55;;;;;;;;;;6172429;23;20024;-79
2023/11/24 16:47:28;;;;;;;13.43;9.75;;;;;;;;;;6183556;23;20020;-79
2023/11/24 16:50:05;;;;;;;6.18;4.07;;;;;;;;;;6163774;23;20009;-78
2023/11/24 16:52:52;;;;;;;;;;;;;;;;;;;;;
2023/11/24 16:55:55;;;;;;;2.88;2.17;;;;;;;;;;6075967;23;20028;-78
2023/11/24 16:59:20;;;;;;;2.63;1.80;;;;;;;;;;6055824;23;20029;-78
2023/11/24 17:02:14;;;;;;;3.70;2.38;;;;;;;;;;6137244;23;20024;-78
2023/11/24 17:05:06;;;;;;;;;;;;;;;;;;;;;
2023/11/24 17:17:02;;;;;;;2.63;2.42;;;;;;;;;;5925310;23;20033;-78
2023/11/24 17:27:36;;;;;;;;;;;;;;;;;;;;;
2023/11/24 17:46:41;;;;;;;3.20;2.03;;;;;;;;;;5828075;24;20024;-78
2023/11/24 17:49:11;;;;;;;2.10;1.13;;;;;;;;;;6007448;23;20451;-78
2023/11/24 17:51:38;;;;;;;2.67;2.47;;;;;;;;;;6081962;23;20013;-78
2023/11/24 17:54:05;;;;;;;5.32;1.70;;;;;;;;;;6134622;23;20024;-78
2023/11/24 17:56:33;;;;;;;2.25;2.05;;;;;;;;;;6134682;23;20021;-78
2023/11/24 17:58:59;;;;;;;2.42;1.45;;;;;;;;;;6158957;23;20061;-78
2023/11/24 18:01:26;;;;;;;3.58;2.10;;;;;;;;;;6134110;23;20028;-78
2023/11/24 18:03:55;;;;;;;5.15;2.75;;;;;;;;;;6158661;23;20013;-78
2023/11/24 18:06:25;;;;;;;6.88;2.00;;;;;;;;;;6159133;23;20017;-78
2023/11/24 18:08:52;;;;;;;4.28;1.77;;;;;;;;;;6134808;23;20017;-78
2023/11/24 18:11:19;;;;;;;3.78;2.40;;;;;;;;;;6133498;23;20028;-78
2023/11/24 18:13:47;;;;;;;4.43;2.80;;;;;;;;;;6133792;23;20360;-78
2023/11/24 18:16:15;;;;;;;2.20;1.92;;;;;;;;;;6160082;23;20017;-78
2023/11/24 18:18:43;;;;;;;5.10;3.13;;;;;;;;;;6184171;23;20021;-78
2023/11/24 18:21:13;;;;;;;7.65;2.70;;;;;;;;;;6159656;23;20353;-78
2023/11/24 18:23:40;;;;;;;4.05;2.08;;;;;;;;;;6158755;23;20020;-78
2023/11/24 18:26:07;;;;;;;2.15;1.63;;;;;;;;;;6134554;23;20028;-78
2023/11/24 18:28:35;;;;;;;3.03;2.05;;;;;;;;;;6158828;23;20035;-78
2023/11/24 18:31:04;;;;;;;6.45;2.10;;;;;;;;;;6185203;23;20330;-78
2023/11/24 18:33:31;;;;;;;4.13;1.75;;;;;;;;;;6158354;23;20021;-78
2023/11/24 18:35:58;;;;;;;2.33;2.00;;;;;;;;;;6134019;23;20028;-78
2023/11/24 18:38:27;;;;;;;7.85;2.38;;;;;;;;;;6134598;23;20028;-78
2023/11/24 18:40:54;;;;;;;1.65;1.20;;;;;;;;;;6132934;23;20028;-78
2023/11/24 18:43:22;;;;;;;5.95;1.70;;;;;;;;;;6134232;23;20028;-78
2023/11/24 18:45:49;;;;;;;2.70;1.35;;;;;;;;;;6133731;23;20016;-78
2023/11/24 18:48:17;;;;;;;3.60;2.28;;;;;;;;;;6158678;23;20020;-78
2023/11/24 18:50:44;;;;;;;2.28;1.63;;;;;;;;;;6134178;23;20024;-78
2023/11/24 18:53:11;;;;;;;3.22;2.42;;;;;;;;;;6159704;23;20013;-78
2023/11/24 18:55:40;;;;;;;7.40;2.83;;;;;;;;;;6183686;23;20508;-78
2023/11/24 18:58:07;;;;;;;3.25;1.55;;;;;;;;;;6159305;23;20013;-78
2023/11/24 19:00:35;;;;;;;2.40;1.67;;;;;;;;;;6135052;23;20020;-78
2023/11/24 19:03:04;;;;;;;2.55;1.65;;;;;;;;;;6159458;23;20453;-78
2023/11/24 19:05:31;;;;;;;2.33;1.58;;;;;;;;;;6186245;23;20017;-78
2023/11/24 19:07:59;;;;;;;1.83;1.23;;;;;;;;;;6134294;23;20032;-78
2023/11/24 19:10:27;;;;;;;1.70;1.60;;;;;;;;;;6135339;23;20020;-78
2023/11/24 19:12:56;;;;;;;1.45;1.33;;;;;;;;;;6192063;23;20013;-78
2023/11/24 19:15:24;;;;;;;2.70;1.50;;;;;;;;;;6160469;23;20020;-78
2023/11/24 19:17:51;;;;;;;9.50;2.03;;;;;;;;;;6168916;23;20465;-78
2023/11/24 19:20:19;;;;;;;2.65;2.05;;;;;;;;;;6190316;23;20013;-78
2023/11/24 19:22:46;;;;;;;2.47;1.30;;;;;;;;;;6143094;23;20020;-78
2023/11/24 19:25:14;;;;;;;1.25;0.93;;;;;;;;;;6141930;23;20021;-78
2023/11/24 19:27:41;;;;;;;1.75;1.20;;;;;;;;;;6174308;23;20013;-78
2023/11/24 19:30:11;;;;;;;2.05;1.05;;;;;;;;;;6135163;23;20017;-78
2023/11/24 19:32:38;;;;;;;1.75;1.20;;;;;;;;;;6140786;23;20024;-78
2023/11/24 19:35:07;;;;;;;4.35;1.77;;;;;;;;;;6138063;23;20023;-78
2023/11/24 19:37:34;;;;;;;3.22;1.63;;;;;;;;;;6160161;23;20017;-78
2023/11/24 19:40:05;;;;;;;2.78;1.58;;;;;;;;;;6162494;23;20035;-78
2023/11/24 19:42:33;;;;;;;4.90;1.63;;;;;;;;;;6177586;23;20028;-78
2023/11/24 19:45:00;;;;;;;3.25;1.58;;;;;;;;;;6141070;23;20017;-78
2023/11/24 19:47:29;;;;;;;8.02;1.85;;;;;;;;;;6168492;23;20013;-78
2023/11/24 19:49:56;;;;;;;1.75;1.00;;;;;;;;;;6158515;23;20109;-78
2023/11/24 19:52:23;;;;;;;2.45;1.52;;;;;;;;;;6133601;23;20017;-78
2023/11/24 19:54:51;;;;;;;2.75;1.73;;;;;;;;;;6159977;23;20017;-77
2023/11/24 19:57:18;;;;;;;1.65;1.20;;;;;;;;;;6109314;23;20477;-78
2023/11/24 19:59:46;;;;;;;3.03;1.63;;;;;;;;;;6159242;23;20013;-78
2023/11/24 20:02:13;;;;;;;2.42;1.73;;;;;;;;;;6134524;23;20349;-78
2023/11/24 20:04:44;;;;;;;3.30;1.73;;;;;;;;;;6158197;23;20025;-78
2023/11/24 20:07:11;;;;;;;2.05;1.38;;;;;;;;;;6158373;23;20013;-78
2023/11/24 20:09:40;;;;;;;4.18;2.58;;;;;;;;;;6157932;23;20020;-78
2023/11/24 20:12:10;;;;;;;2.13;1.10;;;;;;;;;;6134198;23;20017;-78
2023/11/24 20:14:37;;;;;;;2.20;1.25;;;;;;;;;;6133274;23;20028;-78
2023/11/24 20:17:05;;;;;;;2.95;1.73;;;;;;;;;;6193681;23;20036;-78
2023/11/24 20:19:34;;;;;;;3.53;1.35;;;;;;;;;;6185101;23;20020;-78
2023/11/24 20:22:03;;;;;;;6.40;1.70;;;;;;;;;;6133811;23;20021;-78
2023/11/24 20:24:31;;;;;;;1.77;1.52;;;;;;;;;;6158259;23;20025;-78
2023/11/24 20:26:59;;;;;;;1.33;1.10;;;;;;;;;;6132921;23;20356;-78
2023/11/24 20:29:29;;;;;;;2.40;1.63;;;;;;;;;;6157886;23;20021;-79
2023/11/24 20:31:56;;;;;;;2.40;1.60;;;;;;;;;;6132739;23;20017;-78
2023/11/24 20:34:24;;;;;;;5.75;2.25;;;;;;;;;;6133597;23;20021;-78
2023/11/24 20:36:53;;;;;;;2.78;1.23;;;;;;;;;;6132561;23;20017;-78
2023/11/24 20:39:22;;;;;;;7.70;1.75;;;;;;;;;;6132834;23;20032;-78
2023/11/24 20:41:54;;;;;;;4.47;2.38;;;;;;;;;;6133620;23;20024;-78
2023/11/24 20:44:22;;;;;;;3.95;2.03;;;;;;;;;;6167314;23;20020;-78
2023/11/24 20:46:50;;;;;;;2.22;1.08;;;;;;;;;;6183756;23;20032;-78
2023/11/24 20:49:20;;;;;;;2.30;2.03;;;;;;;;;;6184324;23;20027;-78
2023/11/24 20:51:51;;;;;;;4.38;2.95;;;;;;;;;;6134161;23;20083;-78
2023/11/24 20:54:18;;;;;;;3.17;1.60;;;;;;;;;;6133281;23;20024;-78
2023/11/24 20:56:47;;;;;;;1.95;1.30;;;;;;;;;;6157861;23;20013;-78
2023/11/24 20:59:16;;;;;;;4.63;1.42;;;;;;;;;;6158787;23;20036;-78
2023/11/24 21:01:46;;;;;;;1.55;1.02;;;;;;;;;;6131974;23;20024;-78
2023/11/24 21:04:13;;;;;;;1.85;1.20;;;;;;;;;;6184695;23;20484;-78
2023/11/24 21:06:43;;;;;;;2.42;1.45;;;;;;;;;;6156680;23;20028;-78
2023/11/24 21:09:11;;;;;;;4.00;1.75;;;;;;;;;;6132311;23;20020;-78
2023/11/24 21:11:41;;;;;;;2.30;2.03;;;;;;;;;;6157161;23;20017;-78
2023/11/24 21:14:12;;;;;;;6.20;1.73;;;;;;;;;;6158063;23;20028;-78
2023/11/24 21:16:42;;;;;;;2.95;1.20;;;;;;;;;;6183357;23;20024;-78
2023/11/24 21:19:12;;;;;;;2.28;1.30;;;;;;;;;;6158110;23;20344;-78
2023/11/24 21:21:43;;;;;;;4.97;1.23;;;;;;;;;;6133330;23;20078;-78
2023/11/24 21:24:12;;;;;;;4.50;1.55;;;;;;;;;;6133506;23;20018;-78
2023/11/24 21:26:42;;;;;;;1.42;1.27;;;;;;;;;;6194142;23;20036;-78
2023/11/24 21:29:09;;;;;;;1.80;1.15;;;;;;;;;;6157219;23;20028;-78
2023/11/24 21:31:38;;;;;;;2.70;1.10;;;;;;;;;;6132517;23;20017;-78
2023/11/24 21:34:08;;;;;;;1.42;0.93;;;;;;;;;;6168033;23;20013;-78
2023/11/24 21:36:38;;;;;;;1.77;1.13;;;;;;;;;;6183985;23;20020;-78
2023/11/24 21:39:06;;;;;;;2.08;1.27;;;;;;;;;;6184320;23;20013;-78
2023/11/24 21:41:36;;;;;;;2.78;0.90;;;;;;;;;;6158710;23;20017;-78
2023/11/24 21:44:04;;;;;;;2.17;1.00;;;;;;;;;;6133815;23;20349;-78
2023/11/24 21:46:34;;;;;;;3.13;1.10;;;;;;;;;;6158177;23;20017;-78
2023/11/24 21:49:02;;;;;;;1.70;1.40;;;;;;;;;;6137262;23;20024;-79
2023/11/24 21:51:30;;;;;;;2.75;1.75;;;;;;;;;;6132990;23;20024;-78
2023/11/24 21:53:59;;;;;;;1.25;0.70;;;;;;;;;;6133714;23;20040;-78
2023/11/24 21:56:30;;;;;;;2.15;0.98;;;;;;;;;;6133183;23;20021;-78
2023/11/24 21:58:59;;;;;;;1.23;1.08;;;;;;;;;;6157952;23;20020;-78
2023/11/24 22:01:31;;;;;;;1.75;1.00;;;;;;;;;;6160086;23;20028;-78
2023/11/24 22:04:03;;;;;;;1.77;1.67;;;;;;;;;;6157699;23;20017;-78
2023/11/24 22:06:35;;;;;;;1.85;0.70;;;;;;;;;;6157053;23;20021;-78
2023/11/24 22:09:04;;;;;;;2.33;0.95;;;;;;;;;;6133379;23;20024;-78
2023/11/24 22:11:32;;;;;;;2.42;1.80;;;;;;;;;;6133685;23;20028;-78
2023/11/24 22:14:00;;;;;;;1.67;0.90;;;;;;;;;;6134348;23;20372;-78
2023/11/24 22:16:27;;;;;;;3.20;0.93;;;;;;;;;;6134305;23;20024;-78
2023/11/24 22:18:55;;;;;;;1.48;1.33;;;;;;;;;;6110711;23;20341;-78
2023/11/24 22:21:28;;;;;;;2.03;1.23;;;;;;;;;;6134549;23;20359;-78
2023/11/24 22:23:59;;;;;;;5.53;0.88;;;;;;;;;;6195408;23;20013;-78
2023/11/24 22:26:28;;;;;;;1.17;1.02;;;;;;;;;;6131214;23;20028;-78
2023/11/24 22:41:53;;;;;;;2.97;1.40;;;;;;;;;;5749230;24;20028;-81
2023/11/24 22:44:42;;;;;;;3.47;1.23;;;;;;;;;;5901815;24;20025;-80
2023/11/24 22:48:06;;;;;;;4.53;1.25;;;;;;;;;;5821084;24;20031;-80
2023/11/24 23:01:51;;;;;;;3.28;1.08;;;;;;;;;;5895847;23;20021;-80
2023/11/24 23:04:52;;;;;;;;;;;;;;;;;;;;;
2023/11/24 23:07:37;;;;;;;3.03;1.58;;;;;;;;;;6134341;23;20013;-80
2023/11/24 23:13:27;;;;;;;2.40;1.13;;;;;;;;;;6090768;23;20026;-80
2023/11/24 23:15:56;;;;;;;2.05;1.30;;;;;;;;;;6110072;23;20285;-80
2023/11/24 23:34:25;;;;;;;1.13;0.90;;;;;;;;;;5919702;23;20032;-80
2023/11/24 23:37:19;;;;;;;1.90;1.20;;;;;;;;;;6045747;23;20456;-80
2023/11/24 23:40:39;;;;;;;4.13;2.15;;;;;;;;;;6080506;23;20032;-80
2023/11/24 23:43:26;;;;;;;;;;;;;;;;;;;;;
2023/11/24 23:46:01;;;;;;;1.42;1.02;;;;;;;;;;6110136;23;20461;-80
2023/11/24 23:49:58;;;;;;;;;;;;;;;;;;;;;
2023/11/24 23:52:50;;;;;;;1.67;1.58;;;;;;;;;;5922315;24;20023;-80
